Presidio, California
Current Conditions -  °F | °C
As of 8:56 AM on Saturday 25 Oct 2014 (Local Time) from KSFO Reporting Station
Broken Clouds Broken Clouds  
Wind Chill: 66°   Ceiling: 2000
Heat Index: 66°   Visibility: 10mi
Dew Point: 59°   Wind: 9mph
Humidity: 78%   Direction: 120°ESE
Pressure: 30"   Gusts: NA
Location:  37.7976°N, 122.466°W
Report Text: KSFO 251556Z 12008KT 10SM FEW012 BKN020 BKN035 19/15 A3000 RMK AO2 RAE1459 SLP158 P0000 T01890150 $
Loading
Personal Weather Stations






























Interactive Weather Map
Tropical Storm Tracking
New forecast layout! Learn more

10-Day Weather Forecast

Advertisements
Track Severe Weather on mobile